createdAt,value
2019-03-30T00:00:29.812Z,100764.61
2019-03-30T00:03:04.178Z,100769.60
2019-03-30T00:05:39.013Z,100767.70
2019-03-30T00:08:13.493Z,100762.34
2019-03-30T00:10:48.367Z,100758.52
2019-03-30T00:13:22.947Z,100755.13
2019-03-30T00:15:57.820Z,100747.30
2019-03-30T00:18:32.652Z,100756.11
2019-03-30T00:21:07.316Z,100753.42
2019-03-30T00:23:41.387Z,100751.19
2019-03-30T00:26:16.424Z,100742.73
2019-03-30T00:28:51.147Z,100740.95
2019-03-30T00:31:26.181Z,100742.26
2019-03-30T00:34:00.296Z,100735.44
2019-03-30T00:36:34.618Z,100738.07
2019-03-30T00:39:11.496Z,100738.44
2019-03-30T00:41:46.446Z,100741.27
2019-03-30T00:44:21.074Z,100740.33
2019-03-30T00:46:55.482Z,100738.14
2019-03-30T00:49:30.510Z,100733.75
2019-03-30T00:52:05.062Z,100734.56
2019-03-30T00:54:39.687Z,100732.19
2019-03-30T00:57:14.409Z,100730.83
2019-03-30T00:59:49.143Z,100735.68
2019-03-30T01:02:23.996Z,100736.90
2019-03-30T01:04:58.009Z,100732.95
2019-03-30T01:07:33.011Z,100736.13
2019-03-30T01:10:07.599Z,100734.36
2019-03-30T01:12:42.773Z,100735.30
2019-03-30T01:15:17.030Z,100733.06
2019-03-30T01:17:51.796Z,100727.92
2019-03-30T01:20:26.782Z,100725.37
2019-03-30T01:23:01.781Z,100725.37
2019-03-30T01:25:36.440Z,100722.70
2019-03-30T01:28:11.373Z,100719.96
2019-03-30T01:30:45.353Z,100727.54
2019-03-30T01:33:20.017Z,100721.41
2019-03-30T01:35:54.926Z,100726.05
2019-03-30T01:38:29.443Z,100724.42
2019-03-30T01:41:04.364Z,100723.64
2019-03-30T01:43:39.463Z,100726.66
2019-03-30T01:46:14.676Z,100720.02
2019-03-30T01:48:49.273Z,100719.53
2019-03-30T01:51:23.245Z,100717.65
2019-03-30T01:53:57.979Z,100722.18
2019-03-30T01:56:32.947Z,100714.22
2019-03-30T01:59:06.515Z,100716.62
2019-03-30T02:01:40.758Z,100715.08
2019-03-30T02:04:15.709Z,100717.50
2019-03-30T02:06:50.128Z,100715.34
2019-03-30T02:09:24.760Z,100711.15
2019-03-30T02:11:59.917Z,100710.77
2019-03-30T02:14:34.916Z,100708.80
2019-03-30T02:17:09.063Z,100705.06
2019-03-30T02:19:44.456Z,100707.80
2019-03-30T02:22:18.979Z,100706.08
2019-03-30T02:24:53.720Z,100704.20
2019-03-30T02:27:28.443Z,100704.20
2019-03-30T02:30:03.451Z,100702.32
2019-03-30T02:32:38.305Z,100700.91
2019-03-30T02:35:12.343Z,100697.28
2019-03-30T02:37:46.996Z,100692.84
2019-03-30T02:40:20.680Z,100689.19
2019-03-30T02:42:55.499Z,100693.36
2019-03-30T02:45:29.933Z,100690.54
2019-03-30T02:48:03.447Z,100687.80
2019-03-30T02:50:49.411Z,100689.52
2019-03-30T02:53:15.129Z,100685.62
2019-03-30T02:55:50.083Z,100678.27
2019-03-30T02:58:24.164Z,100673.23
2019-03-30T03:00:58.182Z,100681.74
2019-03-30T03:03:33.966Z,100675.25
2019-03-30T03:06:09.279Z,100679.05
2019-03-30T03:08:42.952Z,100677.23
2019-03-30T03:11:17.414Z,100672.34
2019-03-30T03:13:52.249Z,100674.28
2019-03-30T03:16:27.508Z,100671.40
2019-03-30T03:19:02.821Z,100669.66
2019-03-30T03:21:37.848Z,100669.07
2019-03-30T03:24:12.293Z,100663.81
2019-03-30T03:26:46.943Z,100660.20
2019-03-30T03:29:21.544Z,100665.52
2019-03-30T03:31:59.287Z,100662.18
2019-03-30T03:34:34.776Z,100661.55
2019-03-30T03:37:08.926Z,100660.19
2019-03-30T03:39:43.914Z,100662.97
2019-03-30T03:42:18.070Z,100667.47
2019-03-30T03:44:52.769Z,100661.25
2019-03-30T03:47:27.840Z,100659.62
2019-03-30T03:50:02.100Z,100654.13
2019-03-30T03:52:36.701Z,100654.73
2019-03-30T03:55:11.807Z,100650.29
2019-03-30T03:57:48.137Z,100655.39
2019-03-30T04:00:22.796Z,100656.65
2019-03-30T04:03:01.094Z,100657.67
2019-03-30T04:05:38.679Z,100651.53
2019-03-30T04:08:14.656Z,100655.20
2019-03-30T04:10:56.540Z,100651.13
2019-03-30T04:13:32.571Z,100653.53
2019-03-30T04:16:06.964Z,100661.42
2019-03-30T04:18:41.524Z,100659.43
2019-03-30T04:21:16.024Z,100653.83
2019-03-30T04:23:54.216Z,100653.81
2019-03-30T04:26:27.675Z,100647.30
2019-03-30T04:29:02.320Z,100644.29
2019-03-30T04:31:36.876Z,100645.72
2019-03-30T04:34:11.811Z,100650.58
2019-03-30T04:36:46.255Z,100646.20
2019-03-30T04:39:21.209Z,100645.95
2019-03-30T04:41:55.698Z,100644.27
2019-03-30T04:44:29.619Z,100644.88
2019-03-30T04:47:04.150Z,100644.33
2019-03-30T04:49:38.772Z,100637.28
2019-03-30T04:52:13.629Z,100638.13
2019-03-30T04:54:48.277Z,100636.91
2019-03-30T04:57:22.866Z,100636.11
2019-03-30T04:59:58.009Z,100632.53
2019-03-30T05:02:32.666Z,100631.98
2019-03-30T05:05:07.132Z,100627.19
2019-03-30T05:08:00.396Z,100629.55
2019-03-30T05:10:34.756Z,100630.21
2019-03-30T05:13:09.695Z,100625.69
2019-03-30T05:15:44.153Z,100631.83
2019-03-30T05:18:18.767Z,100629.30
2019-03-30T05:20:53.085Z,100632.64
2019-03-30T05:23:28.040Z,100629.56
2019-03-30T05:26:02.596Z,100626.47
2019-03-30T05:28:37.398Z,100618.44
2019-03-30T05:31:11.485Z,100624.11
2019-03-30T05:33:46.054Z,100629.33
2019-03-30T05:36:20.719Z,100629.25
2019-03-30T05:38:55.826Z,100629.86
2019-03-30T05:41:30.548Z,100631.28
2019-03-30T05:44:05.557Z,100634.27
2019-03-30T05:46:40.747Z,100637.20
2019-03-30T05:49:15.389Z,100637.61
2019-03-30T05:51:49.866Z,100639.38
2019-03-30T05:54:24.286Z,100641.73
2019-03-30T05:56:59.216Z,100635.01
2019-03-30T05:59:33.930Z,100632.80
2019-03-30T06:02:08.033Z,100632.25
2019-03-30T06:04:42.565Z,100631.14
2019-03-30T06:07:17.659Z,100629.16
2019-03-30T06:09:52.696Z,100629.45
2019-03-30T06:12:26.674Z,100632.52
2019-03-30T06:15:01.299Z,100625.98
2019-03-30T06:17:36.239Z,100628.42
2019-03-30T06:20:10.745Z,100624.29
2019-03-30T06:22:45.920Z,100630.27
2019-03-30T06:25:20.215Z,100626.55
2019-03-30T06:27:55.017Z,100631.12
2019-03-30T06:30:31.663Z,100636.16
2019-03-30T06:33:06.034Z,100623.38
2019-03-30T06:35:40.060Z,100627.23
2019-03-30T06:38:14.512Z,100629.93
2019-03-30T06:40:49.703Z,100631.67
2019-03-30T06:43:24.662Z,100628.19
2019-03-30T06:45:58.857Z,100624.41
2019-03-30T06:48:35.845Z,100624.02
2019-03-30T06:51:08.333Z,100620.70
2019-03-30T06:53:42.712Z,100618.23
2019-03-30T06:56:17.931Z,100611.91
2019-03-30T06:58:53.213Z,100612.18
2019-03-30T07:01:28.447Z,100610.03
2019-03-30T07:04:03.483Z,100608.11
2019-03-30T07:06:37.988Z,100605.50
2019-03-30T07:09:11.690Z,100614.98
2019-03-30T07:11:49.134Z,100606.55
2019-03-30T07:14:25.122Z,100610.56
2019-03-30T07:17:01.740Z,100602.39
2019-03-30T07:19:40.472Z,100605.97
2019-03-30T07:22:13.760Z,100605.61
2019-03-30T07:24:47.949Z,100604.70
2019-03-30T07:27:22.312Z,100609.03
2019-03-30T07:29:57.151Z,100608.11
2019-03-30T07:32:30.340Z,100605.66
2019-03-30T07:35:04.556Z,100604.27
2019-03-30T07:37:38.047Z,100606.31
2019-03-30T07:40:12.060Z,100603.14
2019-03-30T07:42:46.863Z,100602.30
2019-03-30T07:45:21.489Z,100605.12
2019-03-30T07:47:56.335Z,100602.92
2019-03-30T07:50:30.892Z,100598.66
2019-03-30T07:53:06.632Z,100599.92
2019-03-30T07:55:40.980Z,100597.03
2019-03-30T07:58:15.908Z,100599.68
2019-03-30T08:00:48.709Z,100595.65
2019-03-30T08:03:25.158Z,100592.71
2019-03-30T08:05:58.506Z,100589.44
2019-03-30T08:08:33.411Z,100585.50
2019-03-30T08:11:08.425Z,100582.19
2019-03-30T08:13:46.075Z,100579.22
2019-03-30T08:16:20.087Z,100573.93
2019-03-30T08:18:54.655Z,100567.62
2019-03-30T08:21:28.712Z,100570.25
2019-03-30T08:24:07.177Z,100570.80
2019-03-30T08:26:39.363Z,100571.06
2019-03-30T08:29:12.200Z,100564.00
2019-03-30T08:31:45.871Z,100562.93
2019-03-30T08:34:18.649Z,100558.84
2019-03-30T08:36:59.268Z,100553.00
2019-03-30T08:39:32.602Z,100554.52
2019-03-30T08:42:06.477Z,100555.50
2019-03-30T08:44:40.085Z,100550.32
2019-03-30T08:47:19.541Z,100548.22
2019-03-30T08:49:52.928Z,100541.82
2019-03-30T08:52:55.653Z,100540.24
2019-03-30T08:56:04.632Z,100539.49
2019-03-30T08:58:38.604Z,100530.19
2019-03-30T09:01:16.273Z,100530.94
2019-03-30T09:03:50.114Z,100527.39
2019-03-30T09:06:24.004Z,100519.45
2019-03-30T09:08:57.403Z,100521.95
2019-03-30T09:11:32.920Z,100520.89
2019-03-30T09:14:07.277Z,100517.23
2019-03-30T09:16:40.470Z,100512.66
2019-03-30T09:19:13.675Z,100508.22
2019-03-30T09:21:51.385Z,100503.22
2019-03-30T09:24:25.261Z,100501.42
2019-03-30T09:26:59.873Z,100506.81
2019-03-30T09:29:34.833Z,100496.58
2019-03-30T09:32:14.688Z,100496.19
2019-03-30T09:34:46.104Z,100489.88
2019-03-30T09:37:20.962Z,100490.31
2019-03-30T09:39:55.790Z,100482.16
2019-03-30T09:42:29.554Z,100483.45
2019-03-30T09:45:04.224Z,100488.38
2019-03-30T09:47:38.734Z,100484.00
2019-03-30T09:50:12.627Z,100478.38
2019-03-30T09:52:47.684Z,100477.36
2019-03-30T09:55:22.218Z,100474.48
2019-03-30T09:57:58.481Z,100463.82
2019-03-30T10:00:32.971Z,100466.41
2019-03-30T10:03:07.515Z,100460.84
2019-03-30T10:05:42.139Z,100456.52
2019-03-30T10:08:16.774Z,100449.86
2019-03-30T10:10:50.829Z,100443.13
2019-03-30T10:13:25.515Z,100447.16
2019-03-30T10:15:59.927Z,100444.69
2019-03-30T10:18:34.601Z,100439.69
2019-03-30T10:21:09.580Z,100438.79
2019-03-30T10:23:44.286Z,100438.48
2019-03-30T10:26:19.724Z,100435.91
2019-03-30T10:28:54.231Z,100438.64
2019-03-30T10:31:29.441Z,100432.02
2019-03-30T10:34:03.807Z,100426.44
2019-03-30T10:36:38.903Z,100426.34
2019-03-30T10:39:13.867Z,100420.55
2019-03-30T10:41:48.542Z,100419.64
2019-03-30T10:44:23.807Z,100406.83
2019-03-30T10:46:58.953Z,100401.77
2019-03-30T10:49:33.940Z,100401.09
2019-03-30T10:52:08.348Z,100397.95
2019-03-30T10:54:52.475Z,100391.34
2019-03-30T10:57:31.287Z,100388.94
2019-03-30T11:00:07.127Z,100385.93
2019-03-30T11:02:41.117Z,100386.86
2019-03-30T11:05:15.890Z,100381.87
2019-03-30T11:08:08.764Z,100374.01
2019-03-30T11:10:43.749Z,100379.36
2019-03-30T11:13:18.580Z,100371.92
2019-03-30T11:15:53.194Z,100363.38
2019-03-30T11:18:28.833Z,100369.84
2019-03-30T11:21:03.682Z,100359.90
2019-03-30T11:23:38.701Z,100359.96
2019-03-30T11:26:13.364Z,100352.82
2019-03-30T11:28:48.359Z,100351.22
2019-03-30T11:31:22.845Z,100344.03
2019-03-30T11:33:58.069Z,100336.97
2019-03-30T11:36:32.924Z,100336.92
2019-03-30T11:39:07.491Z,100326.84
2019-03-30T11:41:42.238Z,100332.19
2019-03-30T11:44:16.851Z,100322.45
2019-03-30T11:46:51.895Z,100320.23
2019-03-30T11:49:26.594Z,100318.02
2019-03-30T11:52:01.313Z,100310.20
2019-03-30T11:54:36.682Z,100305.09
2019-03-30T11:57:11.292Z,100296.94
2019-03-30T11:59:45.455Z,100298.00
2019-03-30T12:02:27.791Z,100290.53
2019-03-30T12:04:57.291Z,100281.66
2019-03-30T12:07:32.477Z,100283.06
2019-03-30T12:10:07.386Z,100265.06
2019-03-30T12:12:41.910Z,100260.73
2019-03-30T12:15:17.383Z,100252.12
2019-03-30T12:17:51.875Z,100248.27
2019-03-30T12:20:28.395Z,100238.28
2019-03-30T12:23:03.317Z,100227.34
2019-03-30T12:25:37.903Z,100226.55
2019-03-30T12:28:12.712Z,100225.05
2019-03-30T12:30:47.551Z,100222.12
2019-03-30T12:33:22.199Z,100215.47
2019-03-30T12:35:57.453Z,100200.48
2019-03-30T12:38:31.658Z,100199.11
2019-03-30T12:41:06.246Z,100188.86
2019-03-30T12:43:41.477Z,100185.50
2019-03-30T12:46:15.988Z,100177.72
2019-03-30T12:48:50.691Z,100175.82
2019-03-30T12:51:25.629Z,100168.63
2019-03-30T12:54:00.123Z,100160.97
2019-03-30T12:56:34.644Z,100151.45
2019-03-30T12:59:10.729Z,100149.13
2019-03-30T13:01:45.634Z,100139.02
2019-03-30T13:04:20.542Z,100139.81
2019-03-30T13:06:55.052Z,100139.16
2019-03-30T13:09:30.154Z,100137.84
2019-03-30T13:12:04.782Z,100132.41
2019-03-30T13:14:45.736Z,100132.57
2019-03-30T13:17:20.347Z,100129.17
2019-03-30T13:19:54.485Z,100118.17
2019-03-30T13:22:29.197Z,100115.58
2019-03-30T13:25:04.024Z,100116.70
2019-03-30T13:27:38.607Z,100107.77
2019-03-30T13:30:13.611Z,100103.20
2019-03-30T13:32:48.753Z,100101.06
2019-03-30T13:35:23.659Z,100093.39
2019-03-30T13:37:58.689Z,100089.49
2019-03-30T13:40:32.414Z,100087.56
2019-03-30T13:43:06.957Z,100086.50
2019-03-30T13:45:41.443Z,100078.64
2019-03-30T13:48:16.475Z,100076.10
2019-03-30T13:50:51.102Z,100078.97
2019-03-30T13:53:25.935Z,100071.47
2019-03-30T13:56:00.353Z,100073.42
2019-03-30T13:58:36.675Z,100071.84
2019-03-30T14:01:12.153Z,100065.45
2019-03-30T14:03:47.222Z,100061.56
2019-03-30T14:06:21.371Z,100053.38
2019-03-30T14:08:56.480Z,100054.70
2019-03-30T14:11:31.132Z,100052.72
2019-03-30T14:14:05.703Z,100044.10
2019-03-30T14:16:40.872Z,100041.63
2019-03-30T14:19:16.076Z,100036.13
2019-03-30T14:21:50.627Z,100032.23
2019-03-30T14:24:24.292Z,100026.20
2019-03-30T14:26:59.219Z,100027.38
2019-03-30T14:29:34.312Z,100021.84
2019-03-30T14:32:08.903Z,100022.44
2019-03-30T14:34:43.834Z,100020.45
2019-03-30T14:37:17.858Z,100011.91
2019-03-30T14:39:52.253Z,100009.32
2019-03-30T14:42:26.811Z,100006.35
2019-03-30T14:45:01.975Z,100005.02
2019-03-30T14:47:35.891Z,100001.83
2019-03-30T14:50:11.817Z,99996.91
2019-03-30T14:52:46.419Z,99999.00
2019-03-30T14:55:21.638Z,99995.48
2019-03-30T14:57:55.325Z,99995.36
2019-03-30T15:00:30.336Z,99987.02
2019-03-30T15:03:05.719Z,99983.03
2019-03-30T15:05:38.946Z,99982.04
2019-03-30T15:08:13.623Z,99971.83
2019-03-30T15:10:47.800Z,99967.02
2019-03-30T15:13:23.104Z,99964.03
2019-03-30T15:15:56.338Z,99960.50
2019-03-30T15:18:30.180Z,99957.38
2019-03-30T15:21:04.272Z,99952.95
2019-03-30T15:23:37.089Z,99954.48
2019-03-30T15:26:10.362Z,99958.31
2019-03-30T15:28:43.559Z,99962.40
2019-03-30T15:31:16.916Z,99959.05
2019-03-30T15:33:53.447Z,99954.30
2019-03-30T15:36:29.323Z,99952.73
2019-03-30T15:39:05.485Z,99947.66
2019-03-30T15:41:40.322Z,99941.24
2019-03-30T15:44:14.930Z,99942.81
2019-03-30T15:46:50.284Z,99937.72
2019-03-30T15:49:25.334Z,99939.21
2019-03-30T15:52:13.389Z,99935.13
2019-03-30T15:54:37.382Z,99931.47
2019-03-30T15:57:14.199Z,99929.56
2019-03-30T15:59:49.122Z,99924.59
2019-03-30T16:02:25.627Z,99921.91
2019-03-30T16:05:00.396Z,99913.34
2019-03-30T16:07:35.198Z,99913.03
2019-03-30T16:10:10.227Z,99911.66
2019-03-30T16:12:44.965Z,99908.91
2019-03-30T16:15:20.278Z,99905.22
2019-03-30T16:17:55.514Z,99900.80
2019-03-30T16:20:30.559Z,99899.59
2019-03-30T16:23:05.169Z,99904.28
2019-03-30T16:25:39.582Z,99901.87
2019-03-30T16:28:14.745Z,99900.44
2019-03-30T16:30:49.747Z,99901.63
2019-03-30T16:33:23.818Z,99898.30
2019-03-30T16:35:58.175Z,99899.41
2019-03-30T16:38:32.894Z,99897.81
2019-03-30T16:41:06.720Z,99894.57
2019-03-30T16:43:41.613Z,99890.50
2019-03-30T16:46:16.329Z,99893.61
2019-03-30T16:48:50.917Z,99893.84
2019-03-30T16:51:25.138Z,99893.13
2019-03-30T16:53:59.838Z,99893.16
2019-03-30T16:56:34.133Z,99893.44
2019-03-30T16:59:08.303Z,99893.09
2019-03-30T17:01:43.331Z,99895.15
2019-03-30T17:04:18.245Z,99896.69
2019-03-30T17:06:51.875Z,99900.55
2019-03-30T17:09:28.262Z,99898.81
2019-03-30T17:12:03.275Z,99896.02
2019-03-30T17:14:38.228Z,99896.52
2019-03-30T17:17:13.016Z,99892.64
2019-03-30T17:19:47.574Z,99895.54
2019-03-30T17:22:22.150Z,99898.24
2019-03-30T17:24:56.427Z,99896.06
2019-03-30T17:27:30.928Z,99895.89
2019-03-30T17:30:05.063Z,99901.53
2019-03-30T17:32:40.162Z,99899.77
2019-03-30T17:35:13.381Z,99901.08
2019-03-30T17:37:46.631Z,99897.31
2019-03-30T17:40:21.052Z,99901.05
2019-03-30T17:42:55.151Z,99899.64
2019-03-30T17:45:32.367Z,99901.58
2019-03-30T17:48:05.730Z,99911.77
2019-03-30T17:50:39.996Z,99912.30
2019-03-30T17:53:13.300Z,99915.16
2019-03-30T17:55:48.179Z,99921.41
2019-03-30T17:58:21.464Z,99918.07
2019-03-30T18:00:55.647Z,99919.80
2019-03-30T18:03:30.341Z,99921.02
2019-03-30T18:06:04.472Z,99928.08
2019-03-30T18:08:38.796Z,99932.33
2019-03-30T18:11:13.251Z,99932.83
2019-03-30T18:13:47.735Z,99933.53
2019-03-30T18:16:22.659Z,99929.28
2019-03-30T18:18:57.445Z,99931.33
2019-03-30T18:21:31.948Z,99936.62
2019-03-30T18:24:06.867Z,99937.83
2019-03-30T18:26:40.513Z,99940.70
2019-03-30T18:29:15.180Z,99940.34
2019-03-30T18:31:50.875Z,99940.56
2019-03-30T18:34:25.671Z,99942.27
2019-03-30T18:37:00.823Z,99940.53
2019-03-30T18:39:36.806Z,99943.05
2019-03-30T18:42:10.869Z,99946.45
2019-03-30T18:44:47.257Z,99943.63
2019-03-30T18:47:21.715Z,99943.95
2019-03-30T18:49:56.119Z,99945.20
2019-03-30T18:52:31.410Z,99945.58
2019-03-30T18:55:05.259Z,99943.95
2019-03-30T18:57:39.792Z,99943.51
2019-03-30T19:00:14.992Z,99947.35
2019-03-30T19:02:47.894Z,99944.70
2019-03-30T19:05:22.143Z,99944.44
2019-03-30T19:07:56.509Z,99943.23
2019-03-30T19:10:31.581Z,99945.88
2019-03-30T19:13:07.351Z,99945.29
2019-03-30T19:15:41.187Z,99947.65
2019-03-30T19:18:15.188Z,99948.14
2019-03-30T19:20:48.807Z,99945.80
2019-03-30T19:23:22.087Z,99948.27
2019-03-30T19:25:56.453Z,99946.36
2019-03-30T19:28:29.846Z,99942.61
2019-03-30T19:31:05.521Z,99942.37
2019-03-30T19:33:39.340Z,99943.78
2019-03-30T19:36:13.713Z,99944.80
2019-03-30T19:38:47.434Z,99944.89
2019-03-30T19:41:21.137Z,99944.45
2019-03-30T19:43:54.631Z,99947.37
2019-03-30T19:46:28.712Z,99940.77
2019-03-30T19:49:02.819Z,99945.40
2019-03-30T19:51:38.171Z,99938.69
2019-03-30T19:54:12.310Z,99934.80
2019-03-30T19:56:47.230Z,99933.75
2019-03-30T19:59:21.116Z,99930.81
2019-03-30T20:01:57.120Z,99930.21
2019-03-30T20:04:33.150Z,99930.86
2019-03-30T20:07:07.673Z,99934.38
2019-03-30T20:09:43.031Z,99928.42
2019-03-30T20:12:17.541Z,99927.23
2019-03-30T20:14:52.443Z,99924.69
2019-03-30T20:17:25.495Z,99926.98
2019-03-30T20:19:59.348Z,99921.67
2019-03-30T20:22:33.261Z,99919.17
2019-03-30T20:25:06.642Z,99919.89
2019-03-30T20:27:39.843Z,99919.34
2019-03-30T20:30:13.925Z,99917.36
2019-03-30T20:32:46.707Z,99912.56
2019-03-30T20:35:20.710Z,99922.72
2019-03-30T20:37:53.521Z,99923.66
2019-03-30T20:40:26.352Z,99915.32
2019-03-30T20:43:00.248Z,99917.55
2019-03-30T20:45:33.897Z,99912.11
2019-03-30T20:48:07.639Z,99911.23
2019-03-30T20:50:40.981Z,99911.11
2019-03-30T20:53:14.713Z,99901.94
2019-03-30T20:55:48.193Z,99905.91
2019-03-30T20:58:21.328Z,99901.80
2019-03-30T21:00:54.170Z,99907.28
2019-03-30T21:03:27.460Z,99899.27
2019-03-30T21:06:02.261Z,99901.69
2019-03-30T21:08:36.761Z,99902.55
2019-03-30T21:11:11.598Z,99900.63
2019-03-30T21:13:46.683Z,99892.11
2019-03-30T21:16:21.440Z,99890.97
2019-03-30T21:18:55.987Z,99887.97
2019-03-30T21:21:30.751Z,99882.95
2019-03-30T21:24:05.575Z,99883.55
2019-03-30T21:26:40.437Z,99886.68
2019-03-30T21:29:15.697Z,99883.01
2019-03-30T21:31:50.149Z,99889.03
2019-03-30T21:34:24.696Z,99884.02
2019-03-30T21:36:59.545Z,99888.97
2019-03-30T21:39:34.662Z,99883.55
2019-03-30T21:42:09.169Z,99885.91
2019-03-30T21:44:43.747Z,99880.91
2019-03-30T21:47:18.759Z,99876.47
2019-03-30T21:49:53.790Z,99892.53
2019-03-30T21:52:28.699Z,99897.62
2019-03-30T21:55:03.657Z,99909.58
2019-03-30T21:57:38.695Z,99906.33
2019-03-30T22:00:12.406Z,99904.39
2019-03-30T22:02:47.110Z,99907.50
2019-03-30T22:05:21.629Z,99909.75
2019-03-30T22:07:56.453Z,99905.91
2019-03-30T22:10:34.122Z,99906.81
2019-03-30T22:13:08.393Z,99904.48
2019-03-30T22:15:43.383Z,99900.13
2019-03-30T22:18:17.995Z,99901.98
2019-03-30T22:20:52.839Z,99902.98
2019-03-30T22:23:27.899Z,99905.65
2019-03-30T22:26:02.368Z,99904.39
2019-03-30T22:28:36.673Z,99899.88
2019-03-30T22:31:12.242Z,99897.95
2019-03-30T22:33:46.940Z,99899.31
2019-03-30T22:36:21.955Z,99896.45
2019-03-30T22:38:56.498Z,99897.13
2019-03-30T22:41:30.574Z,99896.96
2019-03-30T22:44:05.221Z,99894.53
2019-03-30T22:46:40.331Z,99899.55
2019-03-30T22:49:15.867Z,99892.78
2019-03-30T22:51:50.416Z,99897.97
2019-03-30T22:54:25.585Z,99893.70
2019-03-30T22:57:00.208Z,99890.45
2019-03-30T22:59:34.812Z,99889.42
2019-03-30T23:02:09.255Z,99888.36
2019-03-30T23:04:43.643Z,99885.10
2019-03-30T23:07:18.410Z,99888.42
2019-03-30T23:09:53.448Z,99891.53
2019-03-30T23:12:27.860Z,99888.41
2019-03-30T23:15:02.659Z,99886.59
2019-03-30T23:17:36.694Z,99887.49
2019-03-30T23:20:10.719Z,99889.06
2019-03-30T23:22:45.406Z,99891.26
2019-03-30T23:25:19.963Z,99887.89
2019-03-30T23:27:54.416Z,99884.39
2019-03-30T23:30:29.327Z,99888.98
2019-03-30T23:33:04.253Z,99884.90
2019-03-30T23:35:39.361Z,99882.90
2019-03-30T23:38:15.458Z,99882.39
2019-03-30T23:40:50.030Z,99883.24
2019-03-30T23:43:24.655Z,99884.73
2019-03-30T23:45:59.893Z,99885.41
2019-03-30T23:48:34.872Z,99886.92
2019-03-30T23:51:08.767Z,99889.26
2019-03-30T23:53:43.665Z,99885.59
2019-03-30T23:56:28.703Z,99890.19
2019-03-30T23:59:03.796Z,99888.67
